Time;durP1;ratioP1;P1;durP2;ratioP2;P2;SDS_P1;SDS_P2;PMS_P1;PMS_P2;Temp;Humidity;BMP_temperature;BMP_pressure;BME280_temperature;BME280_humidity;BME280_pressure;Samples;Min_cycle;Max_cycle;Signal;HPM_P1;HPM_P2
2022/08/29 00:02:35;;;;;;;8.73;3.38;;;;;;;15.43;100.00;101993.09;10341003;28;20444;-76
2022/08/29 00:07:36;;;;;;;6.28;2.15;;;;;;;16.14;100.00;102104.16;10374562;28;20134;-75
2022/08/29 00:12:36;;;;;;;7.65;2.95;;;;;;;16.10;100.00;102091.91;10413564;28;20037;-76
2022/08/29 00:17:37;;;;;;;10.40;2.60;;;;;;;16.06;100.00;102081.53;10398548;28;20034;-75
2022/08/29 00:22:37;;;;;;;5.10;2.47;;;;;;;16.05;100.00;102082.66;10396277;28;20042;-76
2022/08/29 00:27:38;;;;;;;8.27;2.20;;;;;;;16.12;100.00;102094.38;10398114;28;20030;-76
2022/08/29 00:32:39;;;;;;;7.88;2.42;;;;;;;16.08;100.00;102087.69;10403916;28;20034;-76
2022/08/29 00:37:40;;;;;;;6.88;2.38;;;;;;;16.05;100.00;102088.22;10356908;28;20048;-76
2022/08/29 00:42:40;;;;;;;8.70;2.67;;;;;;;16.06;100.00;102095.44;10372163;28;20041;-76
2022/08/29 00:48:09;;;;;;;7.35;2.60;;;;;;;16.11;100.00;102104.66;10374985;28;20046;-76
2022/08/29 00:53:11;;;;;;;6.07;2.20;;;;;;;16.01;100.00;102073.19;10410638;28;20037;-75
2022/08/29 00:58:17;;;;;;;6.45;2.10;;;;;;;16.08;100.00;102096.88;10395779;28;20076;-76
2022/08/29 01:03:17;;;;;;;8.97;2.07;;;;;;;16.05;100.00;102083.50;10397552;28;20040;-76
2022/08/29 01:08:18;;;;;;;6.53;2.30;;;;;;;16.04;100.00;102080.97;10434264;28;20040;-76
2022/08/29 01:13:20;;;;;;;7.25;2.45;;;;;;;15.95;100.00;102075.06;10453459;28;20033;-76
2022/08/29 01:18:21;;;;;;;7.10;2.33;;;;;;;16.00;100.00;102090.94;10421004;28;20041;-75
2022/08/29 01:24:00;;;;;;;8.05;2.65;;;;;;;15.99;100.00;102098.44;10404257;28;20059;-77
2022/08/29 01:29:00;;;;;;;8.45;2.40;;;;;;;16.01;100.00;102092.63;10381808;28;20052;-76
2022/08/29 01:34:01;;;;;;;7.70;2.60;;;;;;;16.05;100.00;102104.88;10396509;28;20390;-76
2022/08/29 01:39:02;;;;;;;7.70;2.65;;;;;;;16.08;100.00;102112.69;10400346;28;20073;-76
2022/08/29 01:44:08;;;;;;;6.07;2.40;;;;;;;16.00;100.00;102094.56;10355340;28;20045;-76
2022/08/29 01:49:09;;;;;;;8.93;2.43;;;;;;;16.10;100.00;102119.69;10378810;28;20037;-76
2022/08/29 01:54:09;;;;;;;7.20;2.50;;;;;;;16.04;100.00;102104.06;10440483;28;20402;-75
2022/08/29 01:59:12;;;;;;;7.95;2.60;;;;;;;16.14;100.00;102114.41;10445173;28;20029;-76
2022/08/29 02:04:14;;;;;;;4.07;1.73;;;;;;;16.10;100.00;102108.56;10420236;28;20037;-76
2022/08/29 02:09:14;;;;;;;3.70;1.75;;;;;;;16.11;100.00;102103.84;10385857;28;20037;-76
2022/08/29 02:14:15;;;;;;;8.38;2.50;;;;;;;16.16;100.00;102106.66;10418849;28;20034;-76
2022/08/29 02:19:15;;;;;;;5.25;2.45;;;;;;;16.12;100.00;102105.50;10402786;28;20057;-76
2022/08/29 02:24:16;;;;;;;8.32;2.20;;;;;;;16.02;100.00;102086.81;10402475;28;20037;-76
2022/08/29 02:29:17;;;;;;;6.35;2.05;;;;;;;16.10;100.00;102099.38;10420484;28;20053;-76
2022/08/29 02:34:18;;;;;;;9.93;3.13;;;;;;;16.11;100.00;102109.41;10419842;28;20099;-76
2022/08/29 02:39:18;;;;;;;4.10;1.98;;;;;;;16.14;100.00;102104.16;10385910;28;20041;-76
2022/08/29 02:44:19;;;;;;;6.97;2.63;;;;;;;16.04;100.00;102103.19;10437176;28;20128;-75
2022/08/29 02:49:20;;;;;;;7.50;2.33;;;;;;;16.02;100.00;102092.38;10443162;28;20041;-76
2022/08/29 02:54:20;;;;;;;7.00;1.85;;;;;;;16.07;100.00;102105.47;10442832;28;20040;-76
2022/08/29 02:59:21;;;;;;;7.40;2.25;;;;;;;15.74;100.00;102049.84;10459697;28;20041;-76
2022/08/29 03:04:21;;;;;;;9.32;2.22;;;;;;;15.64;100.00;102044.13;10458793;28;20076;-75
2022/08/29 03:09:22;;;;;;;8.02;2.95;;;;;;;15.94;100.00;102096.44;10452817;28;20080;-76
2022/08/29 03:14:23;;;;;;;7.72;2.70;;;;;;;15.97;100.00;102097.84;10451193;28;20048;-76
2022/08/29 03:19:23;;;;;;;6.57;1.95;;;;;;;15.94;100.00;102082.56;10458179;28;20052;-76
2022/08/29 03:24:24;;;;;;;9.13;2.20;;;;;;;15.90;100.00;102088.91;10458663;28;20052;-75
2022/08/29 03:29:24;;;;;;;5.20;1.75;;;;;;;16.01;100.00;102087.91;10459701;28;20064;-76
2022/08/29 03:34:26;;;;;;;10.50;2.55;;;;;;;16.09;100.00;102104.09;10448705;28;20046;-76
2022/08/29 03:39:26;;;;;;;10.25;2.35;;;;;;;15.92;100.00;102075.59;10358006;28;20053;-76
2022/08/29 03:44:31;;;;;;;11.40;2.58;;;;;;;16.11;100.00;102109.41;10399592;28;20041;-75
2022/08/29 03:49:32;;;;;;;7.25;2.13;;;;;;;16.12;100.00;102119.41;10358573;28;20066;-76
2022/08/29 03:54:32;;;;;;;5.50;2.70;;;;;;;16.05;100.00;102094.59;10414289;28;20047;-75
2022/08/29 03:59:33;;;;;;;7.53;2.40;;;;;;;15.77;100.00;102045.69;10399126;28;20033;-76
2022/08/29 04:09:52;;;;;;;6.25;2.25;;;;;;;16.08;100.00;102096.00;10412392;28;20475;-76
2022/08/29 04:14:53;;;;;;;9.48;2.90;;;;;;;16.12;100.00;102114.69;10429570;28;20114;-75
2022/08/29 04:19:53;;;;;;;5.57;2.47;;;;;;;16.01;100.00;102092.63;10437904;28;20506;-76
2022/08/29 04:24:54;;;;;;;6.60;3.58;;;;;;;16.08;100.00;102105.22;10437576;28;20175;-76
2022/08/29 04:29:54;;;;;;;11.50;2.42;;;;;;;16.11;100.00;102101.91;10413760;28;20049;-76
2022/08/29 04:34:56;;;;;;;7.40;2.22;;;;;;;16.10;100.00;102105.78;10414002;28;20041;-76
2022/08/29 04:39:57;;;;;;;5.25;2.50;;;;;;;16.07;100.00;102109.06;10397448;28;20061;-76
2022/08/29 04:44:57;;;;;;;7.40;2.70;;;;;;;15.90;100.00;102089.72;10412728;28;20373;-76
2022/08/29 04:49:59;;;;;;;11.43;2.30;;;;;;;15.57;100.00;102054.63;10396850;28;20053;-75
2022/08/29 04:54:59;;;;;;;9.48;2.40;;;;;;;15.92;100.00;102111.69;10414670;28;20037;-76
2022/08/29 05:00:00;;;;;;;5.32;2.75;;;;;;;15.82;100.00;102095.75;10416722;28;20045;-76
2022/08/29 05:05:01;;;;;;;13.73;2.50;;;;;;;15.90;100.00;102102.78;10373206;28;20042;-76
2022/08/29 05:10:05;;;;;;;12.57;3.17;;;;;;;15.97;100.00;102108.13;10374582;28;20041;-75
2022/08/29 05:15:06;;;;;;;6.95;3.28;;;;;;;16.01;100.00;102121.22;10373342;28;20108;-76
2022/08/29 05:20:07;;;;;;;10.18;2.45;;;;;;;16.05;100.00;102127.94;10414598;28;20044;-76
2022/08/29 05:25:09;;;;;;;10.43;3.53;;;;;;;16.11;100.00;102137.19;10414065;28;20040;-75
2022/08/29 05:30:10;;;;;;;13.70;3.65;;;;;;;16.08;100.00;102126.56;10444151;28;20464;-75
2022/08/29 05:35:10;;;;;;;10.80;2.78;;;;;;;16.09;100.00;102117.97;10461674;28;20037;-76
2022/08/29 05:40:11;;;;;;;8.32;3.15;;;;;;;16.22;100.00;102138.94;10462091;28;20044;-75
2022/08/29 05:45:12;;;;;;;9.85;3.58;;;;;;;16.24;100.00;102145.09;10411435;28;20101;-76
2022/08/29 05:50:15;;;;;;;13.63;3.10;;;;;;;16.22;100.00;102130.63;10463476;28;20051;-76
2022/08/29 05:55:16;;;;;;;9.40;2.63;;;;;;;16.38;100.00;102144.69;10461459;28;20144;-76
2022/08/29 06:00:16;;;;;;;9.63;3.20;;;;;;;16.45;100.00;102153.63;10461344;28;20110;-76
2022/08/29 06:05:17;;;;;;;10.18;3.13;;;;;;;16.51;100.00;102153.41;10461393;28;20037;-75
2022/08/29 06:10:17;;;;;;;9.73;2.83;;;;;;;16.69;100.00;102157.75;10435874;28;20105;-77
2022/08/29 06:15:18;;;;;;;8.20;3.00;;;;;;;16.84;100.00;102145.13;10420940;28;20108;-76
2022/08/29 06:20:18;;;;;;;8.05;3.15;;;;;;;17.10;100.00;102148.94;10377762;28;20065;-75
2022/08/29 06:25:19;;;;;;;14.52;3.28;;;;;;;17.21;100.00;102116.47;10398726;28;20041;-76
2022/08/29 06:30:19;;;;;;;10.50;3.85;;;;;;;17.47;100.00;102142.50;10421017;28;20634;-71
2022/08/29 06:35:20;;;;;;;9.85;3.03;;;;;;;17.75;100.00;102146.81;10418704;28;20115;-76
2022/08/29 06:40:20;;;;;;;12.35;2.90;;;;;;;17.84;100.00;102141.56;10407466;28;20034;-77
2022/08/29 06:45:21;;;;;;;8.73;3.03;;;;;;;18.19;100.00;102140.88;10377247;28;20045;-76
2022/08/29 06:50:21;;;;;;;13.57;2.88;;;;;;;18.48;100.00;102145.91;10378070;28;20473;-77
2022/08/29 06:55:22;;;;;;;18.52;3.88;;;;;;;18.78;100.00;102150.69;10377128;28;20493;-76
2022/08/29 07:00:22;;;;;;;15.90;3.88;;;;;;;19.06;100.00;102140.97;10378961;28;20038;-76
2022/08/29 07:05:23;;;;;;;11.93;3.28;;;;;;;19.17;100.00;102141.78;10396760;28;20045;-76
2022/08/29 07:10:23;;;;;;;20.98;3.75;;;;;;;19.27;100.00;102154.88;10401222;28;20501;-77
2022/08/29 07:15:24;;;;;;;11.57;3.00;;;;;;;19.25;100.00;102145.94;10411604;28;20064;-77
2022/08/29 07:20:24;;;;;;;10.38;2.92;;;;;;;19.48;100.00;102148.13;10377452;28;20053;-73
2022/08/29 07:25:26;;;;;;;11.98;3.78;;;;;;;19.29;100.00;102089.25;10400811;28;20049;-75
2022/08/29 07:30:27;;;;;;;15.13;4.03;;;;;;;19.50;100.00;102140.28;10449042;28;20048;-77
2022/08/29 07:35:27;;;;;;;15.82;4.03;;;;;;;19.53;100.00;102153.72;10424640;28;20041;-75
2022/08/29 07:40:28;;;;;;;15.15;3.85;;;;;;;19.44;100.00;102140.59;10442642;28;20072;-75
2022/08/29 07:45:28;;;;;;;10.02;3.72;;;;;;;19.53;100.00;102147.25;10435477;28;20037;-75
2022/08/29 07:50:29;;;;;;;12.57;3.67;;;;;;;19.47;100.00;102156.78;10432790;28;20037;-74
2022/08/29 07:55:29;;;;;;;12.02;3.05;;;;;;;19.55;100.00;102158.97;10436959;28;20036;-76
2022/08/29 08:00:30;;;;;;;13.65;4.40;;;;;;;19.45;100.00;102168.25;10435409;28;20045;-74
2022/08/29 08:05:30;;;;;;;15.38;3.95;;;;;;;19.41;100.00;102181.09;10419396;28;20026;-75
2022/08/29 08:10:31;;;;;;;12.15;3.63;;;;;;;19.60;100.00;102177.72;10435414;28;20029;-75
2022/08/29 08:15:31;;;;;;;12.25;4.00;;;;;;;19.67;100.00;102167.06;10432876;28;20053;-76
2022/08/29 08:20:32;;;;;;;9.63;3.35;;;;;;;19.82;100.00;102164.22;10435720;28;20045;-75
2022/08/29 08:25:33;;;;;;;18.27;3.80;;;;;;;20.12;100.00;102184.78;10420823;28;20049;-76
2022/08/29 08:30:33;;;;;;;11.63;3.30;;;;;;;20.55;100.00;102176.72;10393964;28;20030;-76
2022/08/29 08:35:34;;;;;;;10.65;2.97;;;;;;;20.73;100.00;102153.66;10378901;28;20034;-76
2022/08/29 08:40:41;;;;;;;12.90;2.90;;;;;;;20.83;100.00;102161.13;10391934;28;20038;-76
2022/08/29 08:45:42;;;;;;;12.73;3.63;;;;;;;21.08;100.00;102174.06;10398935;28;20036;-76
2022/08/29 08:50:55;;;;;;;11.43;3.22;;;;;;;21.25;100.00;102145.63;10426716;28;20045;-75
2022/08/29 08:55:58;;;;;;;12.65;2.70;;;;;;;21.72;100.00;102159.97;10397624;28;20044;-76
2022/08/29 09:01:00;;;;;;;7.80;3.28;;;;;;;21.83;100.00;102171.88;10431148;28;20037;-76
2022/08/29 09:06:06;;;;;;;11.77;3.25;;;;;;;21.69;100.00;102171.78;10432417;28;20041;-75
2022/08/29 09:11:12;;;;;;;10.67;3.07;;;;;;;21.72;100.00;102151.56;10417879;28;20046;-77
2022/08/29 09:16:31;;;;;;;11.43;3.50;;;;;;;21.44;100.00;102179.34;10426669;28;20082;-77
2022/08/29 09:21:52;;;;;;;11.13;3.50;;;;;;;20.86;100.00;102190.50;10357935;28;20042;-76
2022/08/29 09:26:54;;;;;;;11.95;2.95;;;;;;;20.41;100.00;102192.47;10441873;28;20465;-76
2022/08/29 09:32:09;;;;;;;15.13;3.05;;;;;;;20.04;100.00;102183.44;10451523;28;20037;-77
2022/08/29 09:37:25;;;;;;;9.63;3.10;;;;;;;19.86;100.00;102176.50;10453286;28;20463;-76
2022/08/29 09:42:36;;;;;;;8.83;3.47;;;;;;;19.91;100.00;102186.84;10379762;28;20120;-76
2022/08/29 09:47:37;;;;;;;10.45;3.30;;;;;;;19.99;100.00;102193.78;10438370;28;20041;-75
2022/08/29 09:52:50;;;;;;;13.30;3.58;;;;;;;20.24;100.00;102176.06;10421228;28;20400;-75
2022/08/29 09:57:54;;;;;;;9.88;2.67;;;;;;;20.50;100.00;102163.56;10395528;28;20037;-77
2022/08/29 10:02:56;;;;;;;8.43;3.10;;;;;;;20.81;100.00;102174.56;10420768;28;20045;-74
2022/08/29 10:07:56;;;;;;;14.65;3.13;;;;;;;20.96;100.00;102182.03;10419841;28;20116;-75
2022/08/29 10:13:19;;;;;;;11.27;2.85;;;;;;;20.95;100.00;102180.34;10439756;28;20504;-74
2022/08/29 10:18:35;;;;;;;17.83;3.85;;;;;;;20.99;100.00;102184.22;10463301;28;20048;-76
2022/08/29 10:23:54;;;;;;;12.50;3.13;;;;;;;20.99;100.00;102184.22;10461580;28;20503;-76
2022/08/29 10:29:13;;;;;;;6.80;2.15;;;;;;;20.86;100.00;102190.50;10462591;28;20053;-75
2022/08/29 10:34:38;;;;;;;9.95;3.00;;;;;;;20.82;100.00;102192.22;10460406;28;20037;-76
2022/08/29 10:39:52;;;;;;;6.88;2.60;;;;;;;20.67;100.00;102177.22;10461342;28;20041;-76
2022/08/29 10:45:20;;;;;;;8.95;2.88;;;;;;;20.72;100.00;102193.97;10428582;28;20041;-75
2022/08/29 10:50:38;;;;;;;9.85;2.70;;;;;;;20.77;100.00;102184.69;10460328;28;20033;-74
2022/08/29 10:55:58;;;;;;;8.48;2.78;;;;;;;20.83;100.00;102205.06;10460800;28;20091;-75
2022/08/29 11:01:08;;;;;;;10.23;2.90;;;;;;;20.81;100.00;102198.94;10427134;28;20045;-75
2022/08/29 11:06:11;;;;;;;6.60;2.28;;;;;;;20.57;100.00;102185.66;10413503;28;20045;-75
2022/08/29 11:11:17;;;;;;;7.03;2.47;;;;;;;20.61;100.00;102209.16;10430173;28;20101;-74
2022/08/29 11:16:27;;;;;;;11.43;2.17;;;;;;;20.53;100.00;102202.19;10433283;28;20619;-75
2022/08/29 11:21:55;;;;;;;11.18;2.60;;;;;;;20.59;100.00;102176.97;10442618;28;20090;-75
2022/08/29 11:27:37;;;;;;;7.30;2.35;;;;;;;21.08;100.00;102188.06;10444618;28;20705;-75
2022/08/29 11:32:55;;;;;;;8.45;2.28;;;;;;;21.60;100.00;102170.75;10395682;28;20082;-75
2022/08/29 11:37:58;;;;;;;10.30;2.13;;;;;;;22.03;100.00;102170.78;10421550;28;20098;-74
2022/08/29 11:42:59;;;;;;;6.10;2.22;;;;;;;22.25;100.00;102145.84;10404350;28;20554;-73
2022/08/29 11:48:08;;;;;;;6.57;2.03;;;;;;;22.82;100.00;102165.44;10374558;28;20105;-76
2022/08/29 11:53:13;;;;;;;10.95;2.28;;;;;;;23.62;100.00;102151.34;10414288;28;20042;-78
2022/08/29 11:58:13;;;;;;;6.20;1.88;;;;;;;24.64;100.00;102154.75;10414704;28;20029;-76
2022/08/29 12:03:32;;;;;;;3.90;1.83;;;;;;;24.94;91.51;102149.50;10414824;28;20065;-76
2022/08/29 12:08:38;;;;;;;6.82;2.08;;;;;;;24.36;92.62;102135.13;10415167;28;20284;-77
2022/08/29 12:13:45;;;;;;;7.63;2.10;;;;;;;24.08;91.60;102153.22;10358925;28;20030;-74
2022/08/29 12:18:46;;;;;;;;;;;;;;;23.71;92.42;102146.66;10437271;28;20106;-73
2022/08/29 12:23:47;;;;;;;6.57;1.88;;;;;;;23.53;92.08;102140.84;10454583;28;19920;-74
2022/08/29 12:28:56;;;;;;;9.23;2.42;;;;;;;23.80;93.46;102142.00;10422065;28;20037;-73
2022/08/29 12:34:11;;;;;;;5.20;1.80;;;;;;;23.96;91.39;102134.09;10403390;28;20067;-74
2022/08/29 12:39:38;;;;;;;7.28;1.88;;;;;;;23.97;92.04;102144.16;10435823;28;20067;-74
2022/08/29 12:44:44;;;;;;;5.60;2.38;;;;;;;23.75;92.47;102130.81;10429366;28;20179;-75
2022/08/29 12:49:50;;;;;;;6.95;2.13;;;;;;;24.07;91.22;102120.63;10404720;28;20067;-75
2022/08/29 12:54:51;;;;;;;;;;;;;;;24.30;89.61;102124.31;10421343;28;20037;-75
2022/08/29 12:59:52;;;;;;;5.63;1.95;;;;;;;24.52;88.34;102113.09;10379673;28;19917;-76
2022/08/29 13:04:52;;;;;;;8.10;2.80;;;;;;;25.21;83.89;102102.59;10395653;28;20115;-72
2022/08/29 13:09:57;;;;;;;7.60;2.00;;;;;;;25.76;82.58;102096.50;10341238;28;20048;-74
2022/08/29 13:15:04;;;;;;;4.55;1.85;;;;;;;26.51;79.48;102099.22;10377429;28;20560;-74
2022/08/29 13:20:44;;;;;;;6.90;1.42;;;;;;;27.35;77.89;102094.06;10411989;28;20065;-73
2022/08/29 13:26:01;;;;;;;3.70;1.67;;;;;;;27.67;72.17;102054.94;10412661;28;20037;-75
2022/08/29 13:31:10;;;;;;;5.90;2.20;;;;;;;27.33;72.87;102090.75;10398311;28;20576;-74
2022/08/29 13:36:26;;;;;;;5.30;1.90;;;;;;;26.68;74.77;102092.75;10407163;28;20424;-74
2022/08/29 13:41:26;;;;;;;8.17;1.80;;;;;;;26.09;76.09;102084.78;10454825;28;20052;-74
2022/08/29 13:46:29;;;;;;;7.93;1.90;;;;;;;26.36;73.14;102061.84;10421564;28;20047;-72
2022/08/29 13:51:29;;;;;;;8.25;1.55;;;;;;;26.74;73.37;102068.78;10444407;28;20048;-73
2022/08/29 13:56:30;;;;;;;4.68;1.98;;;;;;;26.30;73.09;102088.59;10444604;28;20477;-73
2022/08/29 14:01:31;;;;;;;6.60;2.00;;;;;;;25.63;75.33;102080.53;10434076;28;20124;-74
2022/08/29 14:06:32;;;;;;;5.25;1.77;;;;;;;25.62;78.35;102082.50;10402003;28;20465;-73
2022/08/29 14:11:32;;;;;;;6.97;1.70;;;;;;;25.77;80.58;102073.56;10421010;28;20500;-74
2022/08/29 14:16:33;;;;;;;5.55;1.30;;;;;;;25.91;78.60;102058.53;10422079;28;20068;-75
2022/08/29 14:21:33;;;;;;;5.25;1.90;;;;;;;26.75;75.10;102062.81;10389619;28;20069;-75
2022/08/29 14:26:34;;;;;;;3.40;1.25;;;;;;;27.06;72.75;102055.22;10431356;28;20030;-74
2022/08/29 14:31:34;;;;;;;6.25;1.50;;;;;;;26.63;72.83;102057.03;10385582;28;20041;-74
2022/08/29 14:36:35;;;;;;;6.65;1.75;;;;;;;26.37;72.62;102055.03;10367409;28;20587;-75
2022/08/29 14:41:35;;;;;;;4.80;1.25;;;;;;;26.11;71.31;102057.06;10453462;28;20040;-75
2022/08/29 14:46:36;;;;;;;4.82;1.40;;;;;;;25.54;74.45;102055.13;10442880;28;20108;-74
2022/08/29 14:51:36;;;;;;;4.25;1.40;;;;;;;25.66;75.19;102057.31;10413463;28;20048;-75
2022/08/29 14:56:37;;;;;;;5.35;1.48;;;;;;;25.38;76.31;102068.84;10384364;28;20037;-75
2022/08/29 15:01:37;;;;;;;2.70;1.70;;;;;;;24.88;77.08;102069.09;10398424;28;20433;-75
2022/08/29 15:06:38;;;;;;;4.05;1.30;;;;;;;24.37;81.15;102069.25;10382480;28;20451;-77
2022/08/29 15:11:38;;;;;;;4.45;1.70;;;;;;;24.07;81.55;102076.44;10362383;28;20047;-75
2022/08/29 15:16:39;;;;;;;4.15;1.17;;;;;;;23.49;82.36;102052.66;10344643;28;20092;-74
2022/08/29 15:21:39;;;;;;;4.03;1.75;;;;;;;23.38;82.21;102076.53;10357729;28;20073;-75
2022/08/29 15:26:42;;;;;;;5.60;1.50;;;;;;;23.22;83.51;102072.34;10416521;28;20044;-75
2022/08/29 15:31:43;;;;;;;7.05;1.33;;;;;;;23.10;83.83;102070.88;10367874;28;20060;-75
2022/08/29 15:36:43;;;;;;;6.53;1.40;;;;;;;23.24;83.44;102068.09;10371583;28;20045;-75
2022/08/29 15:41:44;;;;;;;6.65;1.55;;;;;;;23.34;82.14;102064.25;10374842;28;20053;-74
2022/08/29 15:46:44;;;;;;;4.53;1.15;;;;;;;23.20;82.31;102058.63;10344096;28;20588;-75
2022/08/29 15:51:45;;;;;;;6.13;1.50;;;;;;;23.10;82.82;102059.63;10382305;28;20037;-80
2022/08/29 15:56:45;;;;;;;3.17;1.20;;;;;;;23.14;81.56;102038.22;10415032;28;20058;-75
2022/08/29 16:01:48;;;;;;;3.60;1.30;;;;;;;23.25;81.72;102041.63;10361911;28;20553;-78
2022/08/29 16:06:49;;;;;;;4.10;1.60;;;;;;;23.35;84.24;102060.28;10342902;28;20042;-75
2022/08/29 16:11:50;;;;;;;2.95;1.50;;;;;;;23.10;82.43;102025.94;10381607;28;20527;-74
2022/08/29 16:16:51;;;;;;;5.85;1.30;;;;;;;23.35;82.68;102049.03;10366448;28;20049;-74
2022/08/29 16:21:51;;;;;;;4.47;1.10;;;;;;;23.25;84.18;102057.66;10360757;28;20049;-75
2022/08/29 16:26:52;;;;;;;3.80;1.17;;;;;;;22.92;86.13;102052.94;10341357;28;20196;-76
2022/08/29 16:31:59;;;;;;;6.57;1.20;;;;;;;22.51;86.44;102042.47;10390011;28;20044;-74
2022/08/29 16:37:00;;;;;;;3.30;1.00;;;;;;;22.16;89.62;102053.09;10438028;28;20036;-73
2022/08/29 16:42:00;;;;;;;3.67;1.08;;;;;;;21.85;90.89;102075.16;10432640;28;20048;-74
2022/08/29 16:47:01;;;;;;;3.25;1.08;;;;;;;21.66;92.51;102060.28;10418929;28;20037;-73
2022/08/29 16:52:02;;;;;;;5.03;0.95;;;;;;;21.49;94.84;102050.41;10416344;28;20037;-74
2022/08/29 16:57:03;;;;;;;5.18;1.58;;;;;;;21.29;100.00;102040.28;10414016;28;20052;-74
2022/08/29 17:02:03;;;;;;;3.25;1.00;;;;;;;21.32;99.31;102058.44;10412725;28;20048;-74
2022/08/29 17:07:04;;;;;;;3.30;0.90;;;;;;;21.17;100.00;102054.69;10421365;28;20089;-73
2022/08/29 17:17:05;;;;;;;3.10;1.10;;;;;;;21.14;100.00;102065.63;10456663;28;20032;-74
2022/08/29 17:22:05;;;;;;;4.05;1.00;;;;;;;20.87;100.00;102035.41;10392825;28;20034;-73
2022/08/29 17:27:06;;;;;;;6.07;1.20;;;;;;;20.82;100.00;102057.88;10381150;28;20052;-73
2022/08/29 17:32:09;;;;;;;4.57;1.20;;;;;;;20.56;100.00;102055.28;10393678;28;20026;-74
2022/08/29 17:37:10;;;;;;;2.17;1.08;;;;;;;20.56;100.00;102091.63;10418147;28;20075;-72
2022/08/29 17:42:10;;;;;;;4.03;1.35;;;;;;;20.40;100.00;102078.91;10434759;28;20067;-73
2022/08/29 17:47:11;;;;;;;3.78;0.90;;;;;;;20.41;100.00;102089.81;10417284;28;20037;-74
2022/08/29 17:52:11;;;;;;;2.97;1.00;;;;;;;20.26;100.00;102079.56;10421464;28;20045;-74
2022/08/29 17:57:12;;;;;;;2.65;0.80;;;;;;;20.06;100.00;102086.13;10417827;28;20064;-75
2022/08/29 18:02:14;;;;;;;1.15;0.60;;;;;;;19.80;100.00;102093.00;10416729;28;20044;-75
2022/08/29 18:07:14;;;;;;;6.00;1.35;;;;;;;19.48;100.00;102078.28;10417326;28;20068;-75
2022/08/29 18:12:15;;;;;;;4.47;1.00;;;;;;;19.52;100.00;102104.53;10419759;28;20567;-74
2022/08/29 18:17:15;;;;;;;1.52;0.68;;;;;;;19.30;100.00;102093.69;10419312;28;20037;-73
2022/08/29 18:22:16;;;;;;;3.88;1.02;;;;;;;19.15;100.00;102099.34;10415370;28;20053;-71
2022/08/29 18:27:16;;;;;;;2.42;1.00;;;;;;;19.03;100.00;102110.81;10420937;28;20022;-75
2022/08/29 18:32:17;;;;;;;4.85;1.05;;;;;;;18.79;100.00;102112.50;10415585;28;20112;-75
2022/08/29 18:37:18;;;;;;;2.60;1.15;;;;;;;18.75;100.00;102129.78;10396129;28;20041;-74
2022/08/29 18:42:19;;;;;;;6.10;1.48;;;;;;;18.65;100.00;102127.00;10429091;28;20040;-74
2022/08/29 18:47:19;;;;;;;2.42;1.17;;;;;;;18.54;100.00;102134.53;10422121;28;20038;-74
2022/08/29 18:52:20;;;;;;;6.22;1.58;;;;;;;18.41;100.00;102140.63;10422393;28;20037;-75
2022/08/29 18:57:20;;;;;;;3.03;1.10;;;;;;;18.29;100.00;102146.47;10425480;28;20033;-74
2022/08/29 19:02:21;;;;;;;1.92;1.02;;;;;;;18.06;100.00;102138.59;10418464;28;20489;-76
2022/08/29 19:07:22;;;;;;;3.83;1.30;;;;;;;18.09;100.00;102161.19;10409858;28;20097;-74
2022/08/29 19:12:22;;;;;;;3.65;1.20;;;;;;;18.03;100.00;102155.88;10416477;28;20079;-75
2022/08/29 19:17:23;;;;;;;4.40;1.73;;;;;;;17.85;100.00;102151.63;10430920;28;20237;-75
2022/08/29 19:22:23;;;;;;;3.13;1.35;;;;;;;17.80;100.00;102165.47;10409383;28;20129;-78
2022/08/29 19:27:24;;;;;;;4.93;1.38;;;;;;;17.72;100.00;102175.22;10441157;28;20045;-75
2022/08/29 19:32:25;;;;;;;4.15;1.48;;;;;;;17.53;100.00;102172.88;10400071;28;20401;-76
2022/08/29 19:37:25;;;;;;;2.25;1.20;;;;;;;17.50;100.00;102178.16;10398458;28;20041;-76
2022/08/29 19:42:26;;;;;;;7.00;1.55;;;;;;;17.35;100.00;102178.91;10412679;28;20286;-76
2022/08/29 19:47:27;;;;;;;2.95;1.48;;;;;;;17.25;100.00;102187.19;10414694;28;20034;-75
2022/08/29 19:52:28;;;;;;;4.07;1.80;;;;;;;17.16;100.00;102181.28;10427823;28;20095;-76
2022/08/29 19:57:29;;;;;;;2.88;1.58;;;;;;;17.18;100.00;102186.56;10405480;28;20076;-76
2022/08/29 20:02:29;;;;;;;3.53;2.13;;;;;;;17.09;100.00;102180.66;10417039;28;20133;-70
2022/08/29 20:07:31;;;;;;;4.25;1.55;;;;;;;16.97;100.00;102177.22;10412133;28;20042;-76
2022/08/29 20:12:32;;;;;;;3.25;2.08;;;;;;;16.98;100.00;102185.31;10388126;28;20056;-75
2022/08/29 20:17:33;;;;;;;7.88;1.60;;;;;;;16.92;100.00;102178.84;10425252;28;20033;-75
2022/08/29 20:22:33;;;;;;;2.40;1.65;;;;;;;17.06;100.00;102195.09;10367581;28;20037;-76
2022/08/29 20:27:35;;;;;;;8.43;2.22;;;;;;;16.99;100.00;102184.22;10413361;28;20038;-75
2022/08/29 20:32:35;;;;;;;5.75;2.17;;;;;;;17.05;100.00;102191.50;10385173;28;20033;-75
2022/08/29 20:37:36;;;;;;;5.68;1.85;;;;;;;17.11;100.00;102207.09;10371211;28;20676;-75
2022/08/29 20:42:36;;;;;;;5.38;1.67;;;;;;;17.03;100.00;102182.56;10370962;28;20061;-75
2022/08/29 20:47:37;;;;;;;2.67;1.67;;;;;;;17.01;100.00;102179.22;10383116;28;20165;-75
2022/08/29 20:52:38;;;;;;;4.85;1.80;;;;;;;17.06;100.00;102195.94;10371774;28;20061;-74
2022/08/29 20:57:40;;;;;;;3.47;1.33;;;;;;;17.02;100.00;102197.56;10385275;28;20034;-74
2022/08/29 21:08:00;;;;;;;2.10;1.33;;;;;;;17.11;100.00;102212.66;10375057;28;20080;-74
2022/08/29 21:13:01;;;;;;;3.25;1.58;;;;;;;17.09;100.00;102209.31;10371229;28;20034;-75
2022/08/29 21:18:02;;;;;;;9.40;1.75;;;;;;;17.07;100.00;102205.94;10369160;28;20034;-75
2022/08/29 21:23:03;;;;;;;8.30;2.08;;;;;;;17.08;100.00;102212.38;10369933;28;20049;-74
2022/08/29 21:28:05;;;;;;;6.20;1.70;;;;;;;17.06;100.00;102209.84;10369382;28;20045;-74
2022/08/29 21:33:05;;;;;;;3.22;1.60;;;;;;;16.92;100.00;102189.16;10401892;28;20046;-74
2022/08/29 21:38:07;;;;;;;5.90;1.50;;;;;;;16.97;100.00;102191.97;10394779;28;20037;-75
2022/08/29 21:43:07;;;;;;;2.90;1.85;;;;;;;16.89;100.00;102203.59;10411920;28;20101;-74
2022/08/29 21:48:08;;;;;;;4.10;2.08;;;;;;;16.84;100.00;102192.41;10410574;28;20053;-74
2022/08/29 21:53:13;;;;;;;6.90;2.50;;;;;;;16.67;100.00;102181.38;10411802;28;20068;-75
2022/08/29 21:58:13;;;;;;;4.03;2.47;;;;;;;16.73;100.00;102200.63;10378036;28;20025;-75
2022/08/29 22:03:14;;;;;;;5.50;2.65;;;;;;;16.71;100.00;102202.00;10394125;28;20089;-75
2022/08/29 22:08:15;;;;;;;9.68;3.28;;;;;;;16.57;100.00;102201.56;10412164;28;20405;-75
2022/08/29 22:13:15;;;;;;;4.15;2.35;;;;;;;16.49;100.00;102193.72;10400966;28;20068;-74
2022/08/29 22:18:16;;;;;;;7.38;2.70;;;;;;;16.51;100.00;102203.44;10401429;28;20655;-75
2022/08/29 22:23:17;;;;;;;3.60;2.40;;;;;;;16.47;100.00;102195.91;10367257;28;20046;-72
2022/08/29 22:28:18;;;;;;;5.47;2.20;;;;;;;16.32;100.00;102177.13;10384122;28;20065;-73
2022/08/29 22:33:19;;;;;;;5.72;2.05;;;;;;;16.27;100.00;102177.94;10399253;28;20037;-73
2022/08/29 22:38:19;;;;;;;6.13;2.00;;;;;;;16.20;100.00;102182.81;10377331;28;20069;-74
2022/08/29 22:43:20;;;;;;;6.05;1.52;;;;;;;16.20;100.00;102207.84;10387439;28;20065;-74
2022/08/29 22:48:20;;;;;;;3.58;1.85;;;;;;;16.10;100.00;102207.72;10350719;28;20132;-75
2022/08/29 22:53:21;;;;;;;4.82;1.95;;;;;;;16.00;100.00;102204.81;10385113;28;20117;-75
2022/08/29 22:58:21;;;;;;;4.03;1.50;;;;;;;15.81;100.00;102191.25;10428626;28;20045;-74
2022/08/29 23:03:22;;;;;;;6.22;1.63;;;;;;;15.85;100.00;102206.28;10384425;28;20524;-74
2022/08/29 23:08:22;;;;;;;6.30;1.98;;;;;;;15.42;100.00;102155.16;10385116;28;20079;-75
2022/08/29 23:13:24;;;;;;;3.97;1.98;;;;;;;15.70;100.00;102212.44;10403008;28;20029;-74